Time;durP1;ratioP1;P1;durP2;ratioP2;P2;SDS_P1;SDS_P2;PMS_P1;PMS_P2;Temp;Humidity;BMP_temperature;BMP_pressure;BME280_temperature;BME280_humidity;BME280_pressure;Samples;Min_cycle;Max_cycle;Signal;HPM_P1;HPM_P2
2022/01/08 00:00:22;;;;;;;12.37;10.73;;;2.20;99.90;;;;;;5076823;28;20980;-70
2022/01/08 00:02:51;;;;;;;12.73;11.43;;;2.20;99.90;;;;;;5076492;28;20461;-71
2022/01/08 00:05:19;;;;;;;12.63;10.70;;;2.20;99.90;;;;;;5076666;28;20458;-71
2022/01/08 00:07:46;;;;;;;15.37;11.27;;;2.20;99.90;;;;;;5076773;28;20890;-69
2022/01/08 00:10:13;;;;;;;13.70;11.67;;;2.20;99.90;;;;;;5076730;28;20768;-70
2022/01/08 00:12:41;;;;;;;13.87;11.57;;;2.10;99.90;;;;;;5076264;28;20486;-70
2022/01/08 00:15:09;;;;;;;11.80;10.60;;;2.10;99.90;;;;;;5076720;28;20586;-70
2022/01/08 00:17:37;;;;;;;13.50;11.03;;;2.10;99.90;;;;;;5077016;28;20455;-70
2022/01/08 00:20:05;;;;;;;15.93;12.10;;;2.00;99.90;;;;;;5076596;28;20454;-70
2022/01/08 00:22:34;;;;;;;14.17;12.67;;;1.90;99.90;;;;;;5077126;28;20458;-71
2022/01/08 00:25:01;;;;;;;14.20;11.60;;;1.90;99.90;;;;;;5076771;28;20556;-72
2022/01/08 00:27:27;;;;;;;16.27;13.03;;;1.90;99.90;;;;;;5076768;28;20494;-71
2022/01/08 00:29:55;;;;;;;15.43;12.80;;;1.80;99.90;;;;;;5076449;28;20516;-71
2022/01/08 00:32:21;;;;;;;14.57;11.93;;;1.70;99.90;;;;;;5076082;28;20470;-70
2022/01/08 00:34:51;;;;;;;15.13;11.77;;;1.70;99.90;;;;;;5076013;28;20542;-71
2022/01/08 00:37:22;;;;;;;18.00;12.40;;;1.60;99.90;;;;;;5076774;28;20461;-71
2022/01/08 00:39:51;;;;;;;16.17;12.87;;;1.50;99.90;;;;;;5076057;28;20450;-71
2022/01/08 00:42:17;;;;;;;13.93;11.63;;;1.50;99.90;;;;;;5076421;28;20947;-71
2022/01/08 00:44:44;;;;;;;17.67;14.17;;;1.50;99.90;;;;;;5075939;28;20465;-70
2022/01/08 00:47:12;;;;;;;18.50;13.77;;;1.50;99.90;;;;;;5075086;28;20794;-71
2022/01/08 00:49:39;;;;;;;16.87;13.27;;;1.40;99.90;;;;;;5076160;28;20446;-71
2022/01/08 00:52:06;;;;;;;18.60;13.63;;;1.50;99.90;;;;;;5076961;28;20556;-70
2022/01/08 00:54:35;;;;;;;16.70;13.77;;;1.50;99.90;;;;;;5076042;28;20461;-70
2022/01/08 00:57:04;;;;;;;19.00;14.43;;;1.40;99.90;;;;;;5076782;28;20512;-71
2022/01/08 00:59:32;;;;;;;17.80;13.23;;;1.50;99.90;;;;;;5076185;28;20458;-70
2022/01/08 01:01:59;;;;;;;20.50;14.23;;;1.40;99.90;;;;;;5076248;28;20481;-71
2022/01/08 01:04:25;;;;;;;20.87;15.10;;;1.50;99.90;;;;;;5075821;28;20454;-71
2022/01/08 01:06:52;;;;;;;20.37;15.07;;;1.40;99.90;;;;;;5075691;28;20454;-70
2022/01/08 01:09:19;;;;;;;18.87;16.17;;;1.50;99.90;;;;;;5075157;28;20458;-71
2022/01/08 01:11:46;;;;;;;18.83;14.00;;;1.50;99.90;;;;;;5075956;28;20981;-71
2022/01/08 01:14:14;;;;;;;18.97;15.47;;;1.50;99.90;;;;;;5075415;28;20454;-71
2022/01/08 01:16:41;;;;;;;21.43;15.90;;;1.60;99.90;;;;;;5075418;28;20561;-69
2022/01/08 01:19:09;;;;;;;20.37;15.47;;;1.60;99.90;;;;;;5075448;28;20799;-69
2022/01/08 01:21:37;;;;;;;23.97;16.70;;;1.70;99.90;;;;;;5075457;28;20898;-71
2022/01/08 01:24:10;;;;;;;21.77;16.13;;;1.70;99.90;;;;;;5074798;28;20454;-71
2022/01/08 01:26:42;;;;;;;21.43;15.63;;;1.70;99.90;;;;;;5075534;28;20879;-70
2022/01/08 01:29:27;;;;;;;20.60;15.10;;;1.80;99.90;;;;;;5074959;28;20453;-70
2022/01/08 01:43:23;;;;;;;21.73;15.43;;;1.90;99.90;;;;;;5013202;28;20786;-71
2022/01/08 01:48:36;;;;;;;22.57;15.00;;;1.90;99.90;;;;;;5074211;28;20481;-72
2022/01/08 01:51:03;;;;;;;17.43;13.90;;;1.90;99.90;;;;;;5074912;28;20459;-71
2022/01/08 01:53:30;;;;;;;18.67;14.57;;;1.90;99.90;;;;;;5074532;28;20465;-71
2022/01/08 01:55:56;;;;;;;19.87;14.57;;;1.90;99.90;;;;;;5074442;28;20454;-70
2022/01/08 01:58:23;;;;;;;19.00;14.60;;;1.90;99.90;;;;;;5074433;28;20984;-71
2022/01/08 02:00:51;;;;;;;21.03;15.30;;;1.90;99.90;;;;;;5074297;28;20517;-71
2022/01/08 02:03:18;;;;;;;18.80;14.83;;;1.90;99.90;;;;;;5074370;28;20542;-71
2022/01/08 02:05:47;;;;;;;20.20;14.60;;;2.00;99.90;;;;;;5074709;28;20454;-70
2022/01/08 02:08:15;;;;;;;19.77;15.73;;;2.00;99.90;;;;;;5073795;28;21002;-71
2022/01/08 02:10:43;;;;;;;17.80;13.97;;;2.10;99.90;;;;;;5074538;28;20458;-71
2022/01/08 02:13:10;;;;;;;18.87;14.90;;;2.00;99.90;;;;;;5074338;28;20482;-71
2022/01/08 02:15:36;;;;;;;18.23;13.20;;;2.00;99.90;;;;;;5074458;28;20465;-71
2022/01/08 02:18:04;;;;;;;18.67;13.77;;;2.00;99.90;;;;;;5074106;28;20461;-71
2022/01/08 02:20:32;;;;;;;18.17;13.70;;;2.00;99.90;;;;;;5074248;28;20458;-72
2022/01/08 02:22:59;;;;;;;17.60;14.00;;;2.10;99.90;;;;;;5074454;28;20801;-70
2022/01/08 02:25:26;;;;;;;21.83;15.20;;;2.10;99.90;;;;;;5074744;28;20465;-70
2022/01/08 02:27:52;;;;;;;17.90;13.93;;;1.90;99.90;;;;;;5074136;28;20458;-70
2022/01/08 02:30:20;;;;;;;23.00;14.23;;;2.00;99.90;;;;;;5074084;28;20455;-71
2022/01/08 02:32:47;;;;;;;16.30;12.33;;;1.90;99.90;;;;;;5073934;28;20946;-76
2022/01/08 02:35:16;;;;;;;17.37;14.00;;;1.90;99.90;;;;;;5074342;28;20465;-71
2022/01/08 02:37:44;;;;;;;17.43;12.80;;;2.00;99.90;;;;;;5074715;28;20454;-71
2022/01/08 02:40:14;;;;;;;17.30;13.10;;;2.00;99.90;;;;;;5074176;28;20472;-71
2022/01/08 02:42:50;;;;;;;16.13;13.03;;;2.00;99.90;;;;;;5073873;28;20450;-70
2022/01/08 02:45:18;;;;;;;17.43;12.50;;;2.10;99.90;;;;;;5074218;28;20438;-70
2022/01/08 02:47:44;;;;;;;18.73;13.33;;;2.10;99.90;;;;;;5073706;28;20524;-71
2022/01/08 02:50:11;;;;;;;16.80;13.50;;;2.10;99.90;;;;;;5074550;28;20572;-71
2022/01/08 02:52:45;;;;;;;18.00;13.93;;;2.20;99.90;;;;;;5073803;28;20965;-71
2022/01/08 02:55:15;;;;;;;20.27;13.33;;;2.20;99.90;;;;;;5073954;28;20771;-72
2022/01/08 02:57:42;;;;;;;16.07;11.40;;;2.20;99.90;;;;;;5074288;28;20462;-71
2022/01/08 03:00:10;;;;;;;17.40;12.43;;;2.20;99.90;;;;;;5073901;28;20458;-71
2022/01/08 03:02:41;;;;;;;15.83;12.50;;;2.30;99.90;;;;;;5074397;28;20462;-71
2022/01/08 03:05:10;;;;;;;13.17;10.73;;;2.30;99.90;;;;;;5074110;28;20475;-70
2022/01/08 03:07:37;;;;;;;16.77;12.23;;;2.30;99.90;;;;;;5073883;28;20465;-71
2022/01/08 03:10:07;;;;;;;15.10;11.87;;;2.40;99.90;;;;;;5073674;28;20473;-71
2022/01/08 03:12:33;;;;;;;15.13;11.77;;;2.40;99.90;;;;;;5078041;28;20482;-71
2022/01/08 03:15:00;;;;;;;14.60;11.83;;;2.30;99.90;;;;;;5078352;28;20771;-71
2022/01/08 03:17:28;;;;;;;15.50;11.30;;;2.30;99.90;;;;;;5078659;28;20454;-71
2022/01/08 03:20:02;;;;;;;16.27;11.70;;;2.30;99.90;;;;;;5078289;28;20468;-71
2022/01/08 03:22:29;;;;;;;15.10;11.60;;;2.40;99.90;;;;;;5078340;28;20446;-70
2022/01/08 03:24:56;;;;;;;11.43;9.93;;;2.40;99.90;;;;;;5077707;28;20523;-71
2022/01/08 03:27:24;;;;;;;13.10;10.87;;;2.30;99.90;;;;;;5078406;28;20454;-71
2022/01/08 03:29:51;;;;;;;15.70;11.90;;;2.30;99.90;;;;;;5078744;28;20742;-70
2022/01/08 03:32:19;;;;;;;15.80;11.60;;;2.30;99.90;;;;;;5078824;28;20489;-70
2022/01/08 03:34:47;;;;;;;15.37;11.97;;;2.30;99.90;;;;;;5077366;28;20454;-70
2022/01/08 03:37:14;;;;;;;14.80;11.63;;;2.30;99.90;;;;;;5077308;28;20457;-71
2022/01/08 03:39:41;;;;;;;14.33;11.60;;;2.30;99.90;;;;;;5077691;28;20760;-71
2022/01/08 03:42:09;;;;;;;16.60;12.10;;;2.30;99.90;;;;;;5077334;28;20515;-70
2022/01/08 03:44:38;;;;;;;14.23;10.60;;;2.30;99.90;;;;;;5077296;28;20801;-70
2022/01/08 03:47:23;;;;;;;13.83;11.60;;;2.30;99.90;;;;;;5077850;28;20462;-71
2022/01/08 03:49:50;;;;;;;13.60;11.10;;;2.30;99.90;;;;;;5077425;28;20723;-72
2022/01/08 03:52:20;;;;;;;15.77;11.97;;;2.30;99.90;;;;;;5076969;28;20805;-71
2022/01/08 03:54:46;;;;;;;15.80;12.47;;;2.30;99.90;;;;;;5077307;28;20748;-71
2022/01/08 03:57:14;;;;;;;13.57;10.77;;;2.30;99.90;;;;;;5077312;28;20469;-71
2022/01/08 03:59:42;;;;;;;13.67;11.00;;;2.30;99.90;;;;;;5077205;28;20454;-71
2022/01/08 04:02:08;;;;;;;14.87;12.10;;;2.30;99.90;;;;;;5077002;28;20458;-71
2022/01/08 04:04:36;;;;;;;15.33;11.87;;;2.30;99.90;;;;;;5076610;28;20454;-71
2022/01/08 04:07:03;;;;;;;13.23;10.97;;;2.30;99.90;;;;;;5076617;28;20486;-71
2022/01/08 04:09:30;;;;;;;16.00;12.23;;;2.30;99.90;;;;;;5076627;28;20454;-71
2022/01/08 04:11:58;;;;;;;14.77;10.57;;;2.30;99.90;;;;;;5076957;28;20508;-71
2022/01/08 04:14:32;;;;;;;13.43;11.37;;;2.30;99.90;;;;;;5076678;28;20490;-71
2022/01/08 04:16:59;;;;;;;14.40;11.97;;;2.30;99.90;;;;;;5076901;28;20442;-71
2022/01/08 04:19:26;;;;;;;15.03;11.30;;;2.30;99.90;;;;;;5076100;28;20990;-71
2022/01/08 04:22:10;;;;;;;12.40;10.30;;;2.40;99.90;;;;;;5076154;28;20843;-71
2022/01/08 04:24:38;;;;;;;13.33;10.37;;;2.30;99.90;;;;;;5076271;28;20478;-71
2022/01/08 04:27:06;;;;;;;14.60;11.30;;;2.40;99.90;;;;;;5076210;28;20497;-71
2022/01/08 04:29:34;;;;;;;15.60;12.10;;;2.40;99.90;;;;;;5075892;28;20486;-71
2022/01/08 04:32:02;;;;;;;13.70;10.80;;;2.40;99.90;;;;;;5076166;28;20485;-71
2022/01/08 04:34:34;;;;;;;15.60;11.90;;;2.40;99.90;;;;;;5076188;28;20458;-71
2022/01/08 04:37:02;;;;;;;14.87;10.87;;;2.40;99.90;;;;;;5075831;28;20508;-71
2022/01/08 04:39:28;;;;;;;16.50;11.33;;;2.40;99.90;;;;;;5075876;28;20540;-71
2022/01/08 04:41:55;;;;;;;15.10;11.63;;;2.40;99.90;;;;;;5076299;28;20768;-71
2022/01/08 04:44:23;;;;;;;12.30;10.00;;;2.40;99.90;;;;;;5075706;28;20519;-70
2022/01/08 04:46:50;;;;;;;15.03;11.53;;;2.40;99.90;;;;;;5075545;28;20458;-70
2022/01/08 04:49:18;;;;;;;12.27;10.13;;;2.50;99.90;;;;;;5075225;28;20546;-71
2022/01/08 04:51:44;;;;;;;14.93;11.00;;;2.50;99.90;;;;;;5075540;28;20462;-70
2022/01/08 04:54:12;;;;;;;15.00;11.27;;;2.50;99.90;;;;;;5075601;28;20446;-71
2022/01/08 04:56:39;;;;;;;13.93;10.63;;;2.50;99.90;;;;;;5075594;28;20461;-70
2022/01/08 04:59:07;;;;;;;15.67;11.40;;;2.50;99.90;;;;;;5075448;28;20454;-70
2022/01/08 05:01:36;;;;;;;13.40;11.47;;;2.50;99.90;;;;;;5075987;28;20788;-71
2022/01/08 05:04:04;;;;;;;14.27;10.90;;;2.50;99.90;;;;;;5075265;28;20507;-71
2022/01/08 05:06:33;;;;;;;13.70;10.13;;;2.60;99.90;;;;;;5075830;28;20454;-71
2022/01/08 05:09:00;;;;;;;13.60;9.90;;;2.60;99.90;;;;;;5075444;28;20881;-71
2022/01/08 05:11:28;;;;;;;11.50;9.73;;;2.60;99.90;;;;;;5075386;28;20527;-71
2022/01/08 05:13:55;;;;;;;12.40;9.73;;;2.60;99.90;;;;;;5075123;28;20478;-71
2022/01/08 05:16:22;;;;;;;13.17;11.37;;;2.60;99.90;;;;;;5075557;28;20454;-71
2022/01/08 05:18:53;;;;;;;14.53;11.10;;;2.60;99.90;;;;;;5074630;28;20519;-70
2022/01/08 05:21:24;;;;;;;13.87;11.03;;;2.60;99.90;;;;;;5074762;28;20454;-70
2022/01/08 05:23:53;;;;;;;12.83;9.90;;;2.60;99.90;;;;;;5075162;28;20438;-70
2022/01/08 05:26:20;;;;;;;12.93;10.40;;;2.50;99.90;;;;;;5075769;28;20454;-71
2022/01/08 05:28:47;;;;;;;12.70;10.60;;;2.50;99.90;;;;;;5075322;28;20462;-72
2022/01/08 05:31:17;;;;;;;13.17;9.93;;;2.50;99.90;;;;;;5076300;28;20929;-71
2022/01/08 05:33:44;;;;;;;15.33;10.00;;;2.50;99.90;;;;;;5075587;28;20484;-71
2022/01/08 05:36:12;;;;;;;13.40;11.33;;;2.50;99.90;;;;;;5076187;28;20960;-71
2022/01/08 05:38:38;;;;;;;13.23;9.90;;;2.50;99.90;;;;;;5077064;28;20466;-70
2022/01/08 05:41:06;;;;;;;15.00;10.37;;;2.50;99.90;;;;;;5076696;28;20469;-71
2022/01/08 05:43:36;;;;;;;11.80;9.90;;;2.50;99.90;;;;;;5078063;28;20450;-70
2022/01/08 05:46:02;;;;;;;14.83;10.87;;;2.40;99.90;;;;;;5076389;28;20489;-71
2022/01/08 05:48:29;;;;;;;12.73;10.10;;;2.40;99.90;;;;;;5075812;28;20486;-71
2022/01/08 05:50:56;;;;;;;14.10;10.97;;;2.40;99.90;;;;;;5076382;28;20469;-70
2022/01/08 05:53:23;;;;;;;14.80;10.57;;;2.40;99.90;;;;;;5076103;28;21017;-70
2022/01/08 05:55:50;;;;;;;15.37;12.10;;;2.50;99.90;;;;;;5076537;28;20545;-72
2022/01/08 05:58:18;;;;;;;13.60;10.90;;;2.50;99.90;;;;;;5076788;28;20454;-70
2022/01/08 06:00:45;;;;;;;13.90;10.80;;;2.50;99.90;;;;;;5076475;28;20618;-70
2022/01/08 06:03:11;;;;;;;13.60;10.83;;;2.50;99.90;;;;;;5078598;28;20450;-71
2022/01/08 06:05:39;;;;;;;15.57;11.27;;;2.50;99.90;;;;;;5076843;28;20457;-71
2022/01/08 06:08:07;;;;;;;12.83;10.60;;;2.50;99.90;;;;;;5077116;28;20458;-71
2022/01/08 06:10:34;;;;;;;19.07;11.27;;;2.50;99.90;;;;;;5078964;28;20458;-70
2022/01/08 06:13:01;;;;;;;13.57;11.77;;;2.60;99.90;;;;;;5085632;28;20489;-70
2022/01/08 06:15:29;;;;;;;16.90;10.77;;;2.60;99.90;;;;;;5085131;28;20489;-71
2022/01/08 06:17:55;;;;;;;13.97;11.10;;;2.60;99.90;;;;;;5079439;28;20967;-70
2022/01/08 06:20:22;;;;;;;15.17;11.30;;;2.60;99.90;;;;;;5075605;28;20535;-71
2022/01/08 06:22:49;;;;;;;12.10;9.80;;;2.70;99.90;;;;;;5075162;28;20914;-70
2022/01/08 06:25:16;;;;;;;14.40;11.13;;;2.70;99.90;;;;;;5077201;28;20516;-70
2022/01/08 06:27:42;;;;;;;13.13;10.67;;;2.60;99.90;;;;;;5077027;28;20454;-71
2022/01/08 06:30:11;;;;;;;15.33;11.00;;;2.60;99.90;;;;;;5076121;28;20454;-71
2022/01/08 06:32:39;;;;;;;14.07;10.60;;;2.70;99.90;;;;;;5075538;28;20504;-71
2022/01/08 06:35:07;;;;;;;18.50;13.40;;;2.70;99.90;;;;;;5075914;28;20480;-71
2022/01/08 06:37:35;;;;;;;13.23;10.77;;;2.80;99.90;;;;;;5075994;28;20454;-70
2022/01/08 06:40:02;;;;;;;14.20;11.60;;;2.80;99.90;;;;;;5076300;28;20465;-70
2022/01/08 06:42:30;;;;;;;13.80;11.27;;;2.80;99.90;;;;;;5075750;28;20906;-71
2022/01/08 06:44:56;;;;;;;15.80;12.07;;;2.90;99.90;;;;;;5076158;28;20783;-70
2022/01/08 06:47:23;;;;;;;17.53;11.47;;;2.90;99.90;;;;;;5079308;28;20485;-70
2022/01/08 06:49:51;;;;;;;13.60;10.17;;;2.90;99.90;;;;;;5079962;28;20770;-71
2022/01/08 06:52:18;;;;;;;14.90;10.83;;;2.90;99.90;;;;;;5078579;28;20464;-71
2022/01/08 06:54:44;;;;;;;17.80;12.60;;;2.90;99.90;;;;;;5078821;28;20486;-71
2022/01/08 06:57:11;;;;;;;15.87;11.77;;;2.90;99.90;;;;;;5078235;28;20555;-70
2022/01/08 06:59:39;;;;;;;15.47;11.57;;;2.90;99.90;;;;;;5078167;28;20465;-70
2022/01/08 07:02:06;;;;;;;18.57;10.00;;;2.90;99.90;;;;;;5078500;28;20458;-70
2022/01/08 07:04:32;;;;;;;14.13;10.67;;;2.90;99.90;;;;;;5078040;28;20453;-70
2022/01/08 07:07:00;;;;;;;15.30;10.73;;;2.90;99.90;;;;;;5078776;28;20822;-70
2022/01/08 07:09:27;;;;;;;16.37;10.70;;;2.90;99.90;;;;;;5077924;28;20464;-70
2022/01/08 07:11:54;;;;;;;18.43;12.40;;;2.90;99.90;;;;;;5078520;28;20519;-70
2022/01/08 07:14:20;;;;;;;15.43;11.60;;;2.90;99.90;;;;;;5077575;28;20482;-71
2022/01/08 07:16:48;;;;;;;16.13;12.80;;;2.90;99.90;;;;;;5078032;28;20457;-70
2022/01/08 07:19:15;;;;;;;18.73;13.30;;;2.90;99.90;;;;;;5077854;28;20472;-71
2022/01/08 07:21:42;;;;;;;15.80;11.53;;;2.90;99.90;;;;;;5078323;28;20465;-70
2022/01/08 07:24:11;;;;;;;16.33;13.33;;;2.90;99.90;;;;;;5077973;28;20515;-70
2022/01/08 07:26:38;;;;;;;18.03;11.47;;;2.90;99.90;;;;;;5078280;28;20466;-70
2022/01/08 07:29:04;;;;;;;16.47;12.63;;;2.90;99.90;;;;;;5077868;28;20519;-71
2022/01/08 07:31:31;;;;;;;16.30;11.60;;;2.80;99.90;;;;;;5078699;28;20462;-70
2022/01/08 07:33:58;;;;;;;15.70;12.30;;;2.80;99.90;;;;;;5077579;28;20478;-70
2022/01/08 07:36:24;;;;;;;15.00;11.13;;;2.80;99.90;;;;;;5077910;28;20511;-70
2022/01/08 07:38:51;;;;;;;14.07;9.90;;;2.80;99.90;;;;;;5077534;28;20469;-70
2022/01/08 07:41:19;;;;;;;15.60;10.43;;;2.90;99.90;;;;;;5077640;28;20454;-70
2022/01/08 07:43:46;;;;;;;13.23;10.40;;;2.90;99.90;;;;;;5077351;28;20841;-70
2022/01/08 07:46:13;;;;;;;14.03;11.00;;;2.90;99.90;;;;;;5077446;28;20512;-71
2022/01/08 07:48:40;;;;;;;13.10;10.03;;;2.90;99.90;;;;;;5077091;28;20497;-71
2022/01/08 07:51:08;;;;;;;16.53;11.03;;;2.90;99.90;;;;;;5077502;28;20462;-70
2022/01/08 07:53:35;;;;;;;14.07;11.00;;;2.90;99.90;;;;;;5077203;28;20478;-70
2022/01/08 07:56:01;;;;;;;16.43;11.83;;;2.90;99.90;;;;;;5077332;28;20458;-70
2022/01/08 07:58:29;;;;;;;21.90;10.70;;;2.90;99.90;;;;;;5076005;28;20483;-70
2022/01/08 08:00:57;;;;;;;14.90;10.97;;;2.90;99.90;;;;;;5077384;28;20903;-70
2022/01/08 08:03:24;;;;;;;14.57;9.90;;;2.90;99.90;;;;;;5077069;28;20477;-69
2022/01/08 08:05:51;;;;;;;15.57;11.07;;;2.90;99.90;;;;;;5077219;28;20465;-71
2022/01/08 08:08:19;;;;;;;14.87;11.70;;;3.00;99.90;;;;;;5077502;28;20520;-71
2022/01/08 08:10:48;;;;;;;18.27;13.30;;;2.90;99.90;;;;;;5077714;28;20466;-70
2022/01/08 08:13:15;;;;;;;19.90;12.13;;;3.00;99.90;;;;;;5078122;28;20559;-71
2022/01/08 08:15:44;;;;;;;24.00;15.77;;;3.00;99.90;;;;;;5077013;28;20462;-70
2022/01/08 08:18:11;;;;;;;20.47;14.53;;;3.00;99.90;;;;;;5076814;28;20528;-70
2022/01/08 08:20:38;;;;;;;17.43;11.70;;;3.00;99.90;;;;;;5076861;28;20462;-70
2022/01/08 08:23:04;;;;;;;16.03;12.53;;;3.00;99.90;;;;;;5077101;28;20473;-70
2022/01/08 08:25:31;;;;;;;14.37;11.30;;;3.00;99.90;;;;;;5079502;28;20470;-70
2022/01/08 08:27:58;;;;;;;14.63;11.13;;;3.00;99.90;;;;;;5081250;28;20481;-71
2022/01/08 08:30:26;;;;;;;16.97;11.47;;;3.00;99.90;;;;;;5076559;28;20489;-70
2022/01/08 08:32:54;;;;;;;15.13;10.70;;;3.00;99.90;;;;;;5076665;28;20949;-70
2022/01/08 08:35:21;;;;;;;15.07;11.00;;;3.00;99.90;;;;;;5076556;28;20458;-70
2022/01/08 08:37:49;;;;;;;15.20;11.10;;;3.10;99.90;;;;;;5076618;28;20462;-70
2022/01/08 08:40:16;;;;;;;15.50;11.20;;;3.00;99.90;;;;;;5076311;28;20458;-70
2022/01/08 08:42:44;;;;;;;14.63;10.43;;;3.00;99.90;;;;;;5075969;28;20521;-70
2022/01/08 08:45:12;;;;;;;14.43;10.87;;;3.00;99.90;;;;;;5076359;28;20454;-70
2022/01/08 08:47:40;;;;;;;18.30;11.80;;;2.90;99.90;;;;;;5076121;28;20486;-70
2022/01/08 08:50:10;;;;;;;19.03;11.23;;;3.00;99.90;;;;;;5076205;28;20528;-70
2022/01/08 08:52:37;;;;;;;12.97;10.43;;;3.00;99.90;;;;;;5075361;28;20511;-70
2022/01/08 08:55:05;;;;;;;14.17;10.77;;;2.90;99.90;;;;;;5075979;28;20822;-71
2022/01/08 08:57:31;;;;;;;16.13;12.27;;;2.90;99.90;;;;;;5076003;28;20458;-70
2022/01/08 08:59:58;;;;;;;16.57;11.00;;;2.90;99.90;;;;;;5075838;28;20507;-69
2022/01/08 09:02:25;;;;;;;16.93;11.80;;;2.90;99.90;;;;;;5076470;28;20760;-70
2022/01/08 09:04:54;;;;;;;13.60;11.20;;;2.80;99.90;;;;;;5076125;28;20454;-71
2022/01/08 09:07:24;;;;;;;15.40;12.23;;;2.90;99.90;;;;;;5075941;28;20458;-71
2022/01/08 09:09:50;;;;;;;14.30;11.13;;;2.90;99.90;;;;;;5075505;28;20458;-69
2022/01/08 09:12:17;;;;;;;16.73;11.33;;;2.90;99.90;;;;;;5075736;28;20465;-70
2022/01/08 09:14:44;;;;;;;18.80;12.77;;;2.80;99.90;;;;;;5075497;28;20478;-70
2022/01/08 09:17:13;;;;;;;16.33;12.97;;;2.80;99.90;;;;;;5075339;28;20492;-70
2022/01/08 09:19:39;;;;;;;17.90;12.00;;;2.80;99.90;;;;;;5076207;28;20846;-70
2022/01/08 09:22:06;;;;;;;17.30;11.20;;;2.80;99.90;;;;;;5075632;28;20842;-70
2022/01/08 09:24:36;;;;;;;17.00;11.60;;;2.90;99.90;;;;;;5075130;28;20455;-70
2022/01/08 09:27:03;;;;;;;16.97;12.43;;;3.00;99.90;;;;;;5075685;28;20464;-71
2022/01/08 09:29:30;;;;;;;17.00;12.83;;;3.00;99.90;;;;;;5075889;28;20459;-72
2022/01/08 09:31:57;;;;;;;17.03;11.33;;;3.00;99.90;;;;;;5075735;28;20492;-70
2022/01/08 09:34:24;;;;;;;14.73;12.23;;;2.90;99.90;;;;;;5075085;28;20474;-70
2022/01/08 09:36:51;;;;;;;14.77;10.80;;;3.00;99.90;;;;;;5075435;28;20465;-71
2022/01/08 09:39:18;;;;;;;14.83;11.47;;;3.00;99.90;;;;;;5075141;28;20459;-71
2022/01/08 09:41:46;;;;;;;15.93;11.00;;;3.00;99.90;;;;;;5074996;28;20527;-70
2022/01/08 09:44:13;;;;;;;15.17;10.93;;;3.00;99.90;;;;;;5075324;28;20458;-70
2022/01/08 09:46:41;;;;;;;14.20;10.57;;;3.10;99.90;;;;;;5075324;28;20454;-71
2022/01/08 09:49:08;;;;;;;15.87;11.93;;;3.20;99.90;;;;;;5074878;28;20481;-70
2022/01/08 09:51:34;;;;;;;18.20;11.13;;;3.20;99.90;;;;;;5075845;28;20520;-70
2022/01/08 09:54:02;;;;;;;15.77;10.87;;;3.20;99.90;;;;;;5074850;28;20474;-70
2022/01/08 09:56:31;;;;;;;15.13;11.10;;;3.30;99.90;;;;;;5075088;28;20515;-70
2022/01/08 09:58:59;;;;;;;15.23;12.13;;;3.20;99.90;;;;;;5074522;28;20966;-71
2022/01/08 10:01:30;;;;;;;14.07;10.90;;;3.30;99.90;;;;;;5075120;28;20454;-70
2022/01/08 10:03:58;;;;;;;15.87;10.50;;;3.30;99.90;;;;;;5074840;28;20435;-71
2022/01/08 10:06:27;;;;;;;13.10;10.87;;;3.30;99.90;;;;;;5075278;28;20843;-72
2022/01/08 10:08:54;;;;;;;14.73;11.07;;;3.30;99.90;;;;;;5074595;28;20462;-70
2022/01/08 10:11:23;;;;;;;14.37;10.63;;;3.30;99.90;;;;;;5074932;28;20784;-70
2022/01/08 10:13:59;;;;;;;11.40;9.70;;;3.20;99.90;;;;;;5074826;28;20478;-70
2022/01/08 10:19:21;;;;;;;14.03;10.17;;;3.10;99.90;;;;;;5074735;28;20449;-69
2022/01/08 10:21:52;;;;;;;14.53;11.93;;;3.10;99.90;;;;;;5074483;28;20461;-70
2022/01/08 10:24:21;;;;;;;13.33;10.50;;;3.00;99.90;;;;;;5075274;28;20458;-70
2022/01/08 10:26:49;;;;;;;17.90;11.57;;;3.00;99.90;;;;;;5074742;28;20536;-70
2022/01/08 10:29:19;;;;;;;13.00;10.70;;;3.10;99.90;;;;;;5074482;28;20458;-71
2022/01/08 10:31:50;;;;;;;13.97;10.87;;;3.10;99.90;;;;;;5074764;28;20443;-70
2022/01/08 10:34:18;;;;;;;14.87;10.30;;;3.10;99.90;;;;;;5074378;28;20466;-71
2022/01/08 10:36:47;;;;;;;13.40;10.23;;;3.20;99.90;;;;;;5075430;28;20530;-71
2022/01/08 10:39:20;;;;;;;14.10;11.40;;;3.20;99.90;;;;;;5074444;28;20919;-70
2022/01/08 10:41:48;;;;;;;16.13;11.47;;;3.20;99.90;;;;;;5074832;28;20498;-74
2022/01/08 10:44:19;;;;;;;14.70;10.60;;;3.20;99.90;;;;;;5074636;28;20458;-72
2022/01/08 10:46:56;;;;;;;15.50;10.80;;;3.30;99.90;;;;;;5074946;28;20454;-71
2022/01/08 10:49:29;;;;;;;15.17;11.97;;;3.30;99.90;;;;;;5074587;28;20426;-71
2022/01/08 10:51:58;;;;;;;15.80;11.07;;;3.30;99.90;;;;;;5074429;28;20960;-70
2022/01/08 10:54:27;;;;;;;14.20;10.37;;;3.40;99.90;;;;;;5074342;28;20600;-72
2022/01/08 10:56:59;;;;;;;16.50;11.70;;;3.40;99.90;;;;;;5074262;28;20519;-71
2022/01/08 10:59:28;;;;;;;13.50;10.03;;;3.50;99.90;;;;;;5074712;28;20446;-71
2022/01/08 11:02:02;;;;;;;13.37;10.53;;;3.50;99.90;;;;;;5074567;28;20454;-72
2022/01/08 11:04:38;;;;;;;12.90;10.77;;;3.60;99.90;;;;;;5074463;28;20522;-71
2022/01/08 11:07:07;;;;;;;13.00;10.80;;;3.70;99.90;;;;;;5075060;28;20446;-71
2022/01/08 11:09:35;;;;;;;18.43;10.33;;;3.70;99.90;;;;;;5074683;28;20760;-71
2022/01/08 11:12:04;;;;;;;15.13;10.00;;;3.80;99.90;;;;;;5075189;28;20461;-72
2022/01/08 11:15:01;;;;;;;12.43;10.10;;;3.90;99.90;;;;;;5075169;28;20486;-71
2022/01/08 11:17:32;;;;;;;15.50;11.60;;;4.00;99.90;;;;;;5074373;28;20442;-71
2022/01/08 11:20:01;;;;;;;14.77;11.07;;;4.00;99.90;;;;;;5074520;28;20823;-71
2022/01/08 11:22:32;;;;;;;16.80;11.70;;;3.90;99.90;;;;;;5075079;28;20788;-71
2022/01/08 11:25:01;;;;;;;14.27;10.90;;;3.90;99.90;;;;;;5074649;28;20442;-70
2022/01/08 11:27:33;;;;;;;13.50;10.37;;;3.90;99.90;;;;;;5075335;28;20473;-71
2022/01/08 11:30:12;;;;;;;11.80;9.73;;;3.80;99.90;;;;;;5074838;28;20504;-71
2022/01/08 11:32:41;;;;;;;18.70;12.03;;;3.70;99.90;;;;;;5076830;28;20499;-70
2022/01/08 11:35:11;;;;;;;12.43;9.07;;;3.60;99.90;;;;;;5078363;28;20488;-70
2022/01/08 11:37:39;;;;;;;13.87;10.30;;;3.50;99.90;;;;;;5077419;28;20450;-70
2022/01/08 11:40:08;;;;;;;19.07;12.17;;;3.40;99.90;;;;;;5077662;28;20949;-70
2022/01/08 11:42:38;;;;;;;15.63;10.13;;;3.30;99.90;;;;;;5077259;28;20923;-71
2022/01/08 11:45:09;;;;;;;12.47;8.57;;;3.30;99.90;;;;;;5077565;28;20473;-71
2022/01/08 11:47:36;;;;;;;13.40;9.47;;;3.20;99.90;;;;;;5077350;28;20547;-70
2022/01/08 11:50:08;;;;;;;13.30;9.00;;;3.20;99.90;;;;;;5077754;28;20450;-70
2022/01/08 11:52:34;;;;;;;10.87;8.40;;;3.20;99.90;;;;;;5077748;28;20768;-69
2022/01/08 11:55:01;;;;;;;8.80;7.80;;;3.20;99.90;;;;;;5077407;28;20482;-71
2022/01/08 11:57:29;;;;;;;16.87;9.93;;;3.20;99.90;;;;;;5077185;28;20501;-69
2022/01/08 11:59:59;;;;;;;11.87;9.50;;;3.30;99.90;;;;;;5077268;28;20462;-71
2022/01/08 12:02:41;;;;;;;41.87;26.83;;;3.30;99.90;;;;;;5077276;28;20779;-71
2022/01/08 12:05:13;;;;;;;13.23;9.30;;;3.30;99.90;;;;;;5076779;28;20496;-72
2022/01/08 12:07:45;;;;;;;10.50;8.77;;;3.30;99.90;;;;;;5077061;28;20446;-71
2022/01/08 12:10:20;;;;;;;9.60;7.07;;;3.30;99.90;;;;;;5077149;28;20795;-70
2022/01/08 12:12:52;;;;;;;8.63;7.17;;;3.30;99.90;;;;;;5077128;28;20763;-70
2022/01/08 12:15:46;;;;;;;10.27;7.60;;;3.30;99.90;;;;;;5076932;28;20466;-71
2022/01/08 12:18:16;;;;;;;12.87;8.40;;;3.30;99.90;;;;;;5076863;28;20784;-71
2022/01/08 12:20:47;;;;;;;10.63;7.80;;;3.40;99.90;;;;;;5076879;28;20903;-71
2022/01/08 12:23:30;;;;;;;14.20;8.50;;;3.30;99.90;;;;;;5076573;28;20457;-70
2022/01/08 12:25:58;;;;;;;12.93;8.90;;;3.30;99.90;;;;;;5077133;28;20794;-71
2022/01/08 12:28:45;;;;;;;12.53;8.50;;;3.40;99.90;;;;;;5076856;28;20469;-71
2022/01/08 12:31:36;;;;;;;13.10;8.80;;;3.40;99.90;;;;;;5076888;28;20442;-71
2022/01/08 12:34:46;;;;;;;11.80;8.70;;;3.40;99.90;;;;;;5077214;28;20800;-71
2022/01/08 12:37:13;;;;;;;11.37;7.87;;;3.50;99.90;;;;;;5076234;28;20553;-71
2022/01/08 12:40:01;;;;;;;13.07;7.80;;;3.90;99.90;;;;;;5076353;28;20462;-69
2022/01/08 12:42:40;;;;;;;8.07;7.07;;;4.40;99.90;;;;;;5071085;28;20450;-70
2022/01/08 12:45:11;;;;;;;7.60;6.10;;;5.50;99.90;;;;;;5076118;28;20438;-70
2022/01/08 12:47:44;;;;;;;6.60;6.00;;;6.70;99.90;;;;;;5075353;28;20482;-71
2022/01/08 12:50:37;;;;;;;8.23;6.00;;;7.70;99.90;;;;;;5076319;28;20895;-71
2022/01/08 12:53:22;;;;;;;9.20;6.23;;;8.50;99.90;;;;;;5073074;28;20552;-70
2022/01/08 12:56:11;;;;;;;11.47;6.93;;;9.10;99.90;;;;;;5075746;28;20517;-71
2022/01/08 12:58:47;;;;;;;8.63;6.50;;;9.50;99.90;;;;;;5075935;28;20469;-70
2022/01/08 13:01:17;;;;;;;14.80;6.40;;;9.60;99.90;;;;;;5076141;28;20414;-71
2022/01/08 13:03:46;;;;;;;8.50;5.80;;;9.80;99.90;;;;;;5075574;28;20465;-70